• Join FlightAware (Why Join?)
  • Login
  • US Flag 
05:08AM EDT


 

Airport Tracker/Info


-or-


 

Live Flight TrackerFlight Track Log ✈ SKQ45 ✈ 26-Apr-2013 ✈ KSTL - KOSU

Flight Track Log - Related Links

Times and Time Zones

All times are in EDT time to prevent confusion due to time zone crossing. See the SKQ45 flight status page for this flight to view local times or setup timezone preferences in your user account.

Time Position Orientation Groundspeed Altitude Reporting Facility
EDT Latitude Longitude Course Direction KTS MPH feet Rate Location/Type
11:57PM 38.7667 -90.2667 67° East 181 208 3,200  Level Gateway (St. Louis) TRACON
11:58PM 38.7681 -90.2222 88° East 173 199 4,300 1,440 Climbing Kansas City Center
11:59PM 38.7717 -90.1544 86° East 184 212 5,800 1,380 Climbing Kansas City Center
12:00AM 38.7753 -90.0878 86° East 187 215 7,200 1,380 Climbing Kansas City Center
12:01AM 38.7817 -90.0233 83° East 185 213 8,600 1,380 Climbing Kansas City Center
12:02AM 38.7978 -89.9592 72° East 188 216 10,100 1,380 Climbing Kansas City Center
12:03AM 38.8119 -89.8950 74° East 188 216 11,500 1,380 Climbing Kansas City Center
12:04AM 38.8258 -89.8311 74° East 187 215 13,000 1,380 Climbing Kansas City Center
12:05AM 38.8397 -89.7644 75° East 192 221 14,300 1,200 Climbing Kansas City Center
12:06AM 38.8544 -89.6953 75° East 199 229 15,500 1,200 Climbing Kansas City Center
12:07AM 38.8747 -89.6050 74° East 217 250 16,800 1,200 Climbing Kansas City Center
12:08AM 38.8914 -89.5289 74° East 221 254 18,000 840 Climbing Kansas City Center
12:09AM 38.9086 -89.4514 74° East 225 259 18,600 300 Climbing Kansas City Center
12:10AM 38.9269 -89.3650 75° East 250 288 18,700  Climbing Kansas City Center
12:11AM 38.9467 -89.2656 76° East 284 327 18,600  Descending Kansas City Center
12:12AM 38.9683 -89.1644 75° East 293 337 18,700  Climbing Kansas City Center
12:13AM 38.9897 -89.0633 75° East 294 338 18,700 -60 Level Kansas City Center
12:14AM 39.0122 -88.9600 74° East 293 337 18,600  Descending Kansas City Center
12:15AM 39.0336 -88.8611 74° East 295 339 18,800 180 Climbing Kansas City Center
12:16AM 39.0550 -88.7631 74° East 289 333 19,000 60 Climbing Kansas City Center
12:17AM 39.0744 -88.6639 76° East 288 331 19,000  Level Kansas City Center
12:18AM 39.0969 -88.5603 74° East 287 330 19,000  Level Kansas City Center
12:19AM 39.1167 -88.4622 75° East 283 326 19,000  Level Kansas City Center
12:20AM 39.1369 -88.3678 74° East 277 319 19,000  Level Kansas City Center
12:21AM 39.1556 -88.2725 76° East 273 314 19,000  Level Kansas City Center
12:22AM 39.1756 -88.1775 75° East 273 314 19,000  Level Kansas City Center
12:23AM 39.1947 -88.0819 75° East 274 315 19,000  Level Kansas City Center
12:24AM 39.2133 -87.9847 76° East 277 319 19,000  Level Kansas City Center
12:25AM 39.2325 -87.8894 75° East 275 316 19,000  Level Kansas City Center
12:26AM 39.2464 -87.8150 76° East 272 313 19,000  Level Indianapolis Center
12:27AM 39.2661 -87.7172 75° East 277 319 19,000  Level Indianapolis Center
12:28AM 39.2889 -87.6006 76° East 284 327 19,000  Level Indianapolis Center
12:29AM 39.3094 -87.5011 75° East 284 327 19,000  Level Indianapolis Center
12:30AM 39.3275 -87.4019 77° East 283 326 19,000  Level Indianapolis Center
12:31AM 39.3472 -87.3033 75° East 282 325 19,000  Level Indianapolis Center
12:32AM 39.3661 -87.2044 76° East 282 325 19,000  Level Indianapolis Center
12:33AM 39.3856 -87.1064 76° East 282 325 19,000  Level Indianapolis Center
12:34AM 39.4033 -87.0081 77° East 280 322 19,000  Level Indianapolis Center
12:35AM 39.4231 -86.9089 76° East 282 325 19,000  Level Indianapolis Center
12:36AM 39.4425 -86.8075 76° East 286 329 19,000  Level Indianapolis Center
12:37AM 39.4608 -86.7083 77° East 285 328 19,000  Level Indianapolis Center
12:38AM 39.4794 -86.6078 76° East 285 328 19,000  Level Indianapolis Center
12:39AM 39.4981 -86.5078 76° East 286 329 19,000  Level Indianapolis Center
12:40AM 39.5161 -86.4081 77° East 285 328 19,000  Level Indianapolis Center
12:41AM 39.5347 -86.3081 76° East 286 329 19,000  Level Indianapolis Center
12:42AM 39.5531 -86.2081 77° East 286 329 19,000  Level Indianapolis Center
12:43AM 39.5717 -86.1081 76° East 287 330 19,000  Level Indianapolis Center
12:44AM 39.5892 -86.0075 77° East 287 330 19,000  Level Indianapolis Center
12:45AM 39.6081 -85.9092 76° East 283 326 19,000  Level Indianapolis Center
12:46AM 39.6256 -85.8094 77° East 284 327 19,000  Level Indianapolis Center
12:47AM 39.6439 -85.7086 77° East 284 327 19,000  Level Indianapolis Center
12:48AM 39.6611 -85.6072 78° East 287 330 19,000  Level Indianapolis Center
12:49AM 39.6794 -85.5075 77° East 285 328 19,000  Level Indianapolis Center
12:50AM 39.6967 -85.4056 78° East 287 330 19,000  Level Indianapolis Center
12:51AM 39.7156 -85.3053 76° East 285 328 19,000  Level Indianapolis Center
12:52AM 39.7319 -85.2031 78° East 286 329 19,000  Level Indianapolis Center
12:53AM 39.7500 -85.1022 77° East 286 329 19,000  Level Indianapolis Center
12:54AM 39.7669 -85.0008 78° East 285 328 19,000  Level Indianapolis Center
12:55AM 39.7847 -84.8992 77° East 287 330 19,000  Level Indianapolis Center
12:56AM 39.8019 -84.8011 77° East 286 329 19,000  Level Indianapolis Center
12:57AM 39.8189 -84.6983 78° East 289 333 19,000 -60 Level Indianapolis Center
12:58AM 39.8336 -84.6081 78° East 287 330 18,900 -720 Descending Indianapolis Center
12:59AM 39.8506 -84.5017 78° East 303 349 17,700 -1,020 Descending Indianapolis Center
01:00AM 39.8711 -84.3794 78° East 324 373 16,900 -900 Descending Indianapolis Center
01:01AM 39.8869 -84.2836 78° East 321 369 16,000 -1,260 Descending Indianapolis Center
01:02AM 39.9042 -84.1742 78° East 319 367 14,700 -1,320 Descending Indianapolis Center
01:02AM 39.9100 -84.1453 75° East 316 364 14,400 -1,200 Descending Indianapolis Center
01:03AM 39.9208 -84.0678 80° East 300 345 13,500 -1,200 Descending Indianapolis Center
01:03AM 39.9267 -84.0397 75° East 302 348 13,200 -1,140 Descending Indianapolis Center
01:04AM 39.9364 -83.9717 79° East 271 312 12,400 -1,200 Descending Indianapolis Center
01:04AM 39.9428 -83.9408 75° East 281 323 12,000 -1,320 Descending Indianapolis Center
01:05AM 39.9525 -83.8731 79° East 277 319 11,100 -1,200 Descending Indianapolis Center
01:05AM 39.9583 -83.8419 76° East 276 318 10,800 -1,200 Descending Indianapolis Center
01:06AM 39.9683 -83.7717 79° East 275 316 9,900 -1,320 Descending Indianapolis Center
01:06AM 39.9744 -83.7447 74° East 272 313 9,500 -1,200 Descending Indianapolis Center
01:07AM 39.9839 -83.6756 80° East 269 310 8,700 -1,020 Descending Indianapolis Center
01:07AM 39.9875 -83.6639 68° East 270 311 8,500 -1,200 Descending Indianapolis Center
01:08AM 39.9992 -83.5822 79° East 266 306 7,500 -1,200 Descending Indianapolis Center
01:08AM 40.0031 -83.5672 71° East 268 308 7,300 -1,200 Descending Indianapolis Center
01:09AM 40.0147 -83.4861 79° East 265 305 6,300 -1,200 Descending Indianapolis Center
01:09AM 40.0181 -83.4714 74° East 266 306 6,100 -1,320 Descending Indianapolis Center
01:10AM 40.0294 -83.3981 79° East 245 282 5,000 -1,140 Descending Indianapolis Center
01:10AM 40.0328 -83.3717 81° East 257 296 5,000  Level Indianapolis Center
01:12AM 40.0461 -83.2404 78° East  Level FlightAware Approximate
01:19AM 40.0667 -83.0667 90° East  Level FlightAware Approximate
01:20AM 40.0798 -83.0732 90° East  Level Estimated